Time;durP1;ratioP1;P1;durP2;ratioP2;P2;SDS_P1;SDS_P2;PMS_P1;PMS_P2;Temp;Humidity;BMP_temperature;BMP_pressure;BME280_temperature;BME280_humidity;BME280_pressure;Samples;Min_cycle;Max_cycle;Signal;HPM_P1;HPM_P2
2022/01/23 00:00:20;;;;;;;7.08;5.60;;;;;;;6.98;48.30;99485.27;1766518;80;21006;-65
2022/01/23 00:02:49;;;;;;;6.47;4.92;;;;;;;6.99;48.27;99494.84;1726850;82;21499;-65
2022/01/23 00:05:16;;;;;;;8.23;4.92;;;;;;;6.99;48.27;99499.66;1694233;82;21027;-65
2022/01/23 00:07:44;;;;;;;6.70;4.87;;;;;;;7.00;48.26;99497.83;1760342;80;21455;-65
2022/01/23 00:10:11;;;;;;;7.85;5.83;;;;;;;7.00;48.26;99500.48;1771851;80;21021;-65
2022/01/23 00:12:47;;;;;;;7.85;5.92;;;;;;;7.00;48.22;99500.48;1769924;80;21013;-66
2022/01/23 00:17:53;;;;;;;5.90;5.00;;;;;;;7.01;48.18;99500.33;1770792;80;21553;-66
2022/01/23 00:20:20;;;;;;;7.20;5.67;;;;;;;7.02;48.18;99500.66;1751241;80;21522;-66
2022/01/23 00:22:51;;;;;;;7.22;5.25;;;;;;;7.02;48.18;99502.47;1765249;79;21053;-65
2022/01/23 00:30:45;;;;;;;6.72;5.17;;;;;;;7.04;48.14;99511.89;1722480;82;21688;-64
2022/01/23 00:33:12;;;;;;;7.00;5.35;;;;;;;7.05;48.13;99517.53;1750929;80;21522;-65
2022/01/23 00:35:40;;;;;;;7.78;5.58;;;;;;;7.05;48.12;99512.25;1756753;80;21054;-65
2022/01/23 00:38:08;;;;;;;6.75;5.03;;;;;;;7.06;48.12;99513.07;1769215;80;21026;-65
2022/01/23 00:40:35;;;;;;;7.53;5.50;;;;;;;7.06;48.09;99511.25;1759336;79;21214;-66
2022/01/23 00:43:06;;;;;;;7.03;5.12;;;;;;;7.06;48.07;99504.65;1776078;80;20999;-66
2022/01/23 00:45:33;;;;;;;6.90;5.42;;;;;;;7.07;48.06;99506.83;1776207;80;21029;-65
2022/01/23 00:48:05;;;;;;;6.75;5.37;;;;;;;7.08;48.06;99512.43;1750660;80;21072;-65
2022/01/23 00:50:38;;;;;;;6.95;5.28;;;;;;;7.07;48.03;99512.92;1766240;80;21077;-65
2022/01/23 00:53:10;;;;;;;7.37;5.90;;;;;;;7.08;48.04;99509.78;1749032;80;21215;-66
2022/01/23 00:55:38;;;;;;;7.85;5.33;;;;;;;7.08;48.00;99514.57;1759417;80;21006;-64
2022/01/23 00:58:04;;;;;;;6.87;5.35;;;;;;;7.09;48.02;99510.96;1754573;80;21558;-65
2022/01/23 01:00:31;;;;;;;9.15;6.53;;;;;;;7.09;48.00;99512.28;1769731;80;21026;-66
2022/01/23 01:03:01;;;;;;;7.58;5.47;;;;;;;7.10;47.99;99509.14;1761875;80;21014;-66
2022/01/23 01:05:28;;;;;;;7.67;5.47;;;;;;;7.10;47.97;99506.50;1761710;80;22038;-65
2022/01/23 01:07:58;;;;;;;7.95;5.62;;;;;;;7.10;47.97;99501.22;1744039;80;21034;-65
2022/01/23 01:10:36;;;;;;;9.28;6.47;;;;;;;7.11;47.96;99505.53;1762428;80;21065;-65
2022/01/23 01:12:58;;;;;;;7.00;5.53;;;;;;;7.12;47.94;99505.86;1749090;80;21530;-65
2022/01/23 01:15:30;;;;;;;8.70;5.58;;;;;;;7.12;47.94;99506.36;1742863;80;21541;-67
2022/01/23 01:33:58;;;;;;;7.55;6.12;;;;;;;7.12;47.89;99511.14;1751544;80;21514;-65
2022/01/23 01:36:27;;;;;;;8.45;6.12;;;;;;;7.13;47.89;99514.60;1765514;80;21537;-65
2022/01/23 01:38:49;;;;;;;7.62;5.40;;;;;;;7.13;47.90;99504.03;1765224;80;21582;-65
2022/01/23 01:41:18;;;;;;;8.98;5.97;;;;;;;7.13;47.89;99508.86;1768358;80;21025;-65
2022/01/23 01:43:46;;;;;;;7.85;6.08;;;;;;;7.13;47.89;99518.09;1766038;80;21185;-64
2022/01/23 01:46:14;;;;;;;7.45;5.25;;;;;;;7.14;47.87;99521.06;1756770;80;21638;-65
2022/01/23 01:48:42;;;;;;;7.83;5.55;;;;;;;7.14;47.86;99525.02;1757972;80;21612;-66
2022/01/23 01:51:15;;;;;;;8.68;6.00;;;;;;;7.15;47.85;99526.70;1744931;80;21054;-66
2022/01/23 01:53:49;;;;;;;6.90;5.50;;;;;;;7.16;47.84;99528.84;1758404;80;21029;-64
2022/01/23 01:56:12;;;;;;;7.60;5.60;;;;;;;7.17;47.85;99533.98;1769937;80;22893;-66
2022/01/23 02:02:47;;;;;;;7.80;5.50;;;;;;;7.17;47.83;99533.98;1747947;80;21097;-64
2022/01/23 02:09:18;;;;;;;7.30;5.75;;;;;;;7.19;47.80;99537.80;1751928;80;21650;-65
2022/01/23 02:12:11;;;;;;;6.40;4.95;;;;;;;7.19;47.80;99538.63;1755106;81;21544;-66
2022/01/23 02:22:40;;;;;;;7.53;5.92;;;;;;;7.19;47.77;99541.27;1729835;82;21170;-64
2022/01/23 02:25:29;;;;;;;6.37;5.10;;;;;;;7.19;47.79;99545.73;1755605;80;21050;-64
2022/01/23 02:52:50;;;;;;;6.17;5.17;;;;;;;7.18;47.78;99581.04;1738656;80;21556;-66
2022/01/23 02:55:24;;;;;;;6.55;5.40;;;;;;;7.18;47.78;99582.36;1756078;80;21101;-66
2022/01/23 03:00:15;;;;;;;7.58;6.10;;;;;;;7.18;47.79;99590.29;1743850;80;21070;-66
2022/01/23 03:03:11;;;;;;;7.45;6.30;;;;;;;7.18;47.79;99588.97;1774356;80;22645;-64
2022/01/23 03:05:39;;;;;;;7.78;6.05;;;;;;;7.19;47.79;99595.43;1774791;80;20987;-66
2022/01/23 03:08:43;;;;;;;9.15;6.55;;;;;;;7.19;47.79;99599.89;1755851;80;21096;-65
2022/01/23 03:16:17;;;;;;;8.70;7.15;;;;;;;7.20;47.75;99601.53;1766086;80;21991;-66
2022/01/23 03:24:11;;;;;;;7.65;6.28;;;;;;;7.20;47.73;99609.46;1778424;80;21014;-66
2022/01/23 03:24:17;;;;;;;7.78;5.97;;;;;;;7.20;47.72;99609.46;1773483;80;21018;-64
2022/01/23 03:26:54;;;;;;;9.40;6.83;;;;;;;7.20;47.71;99619.53;1766156;80;21054;-65
2022/01/23 03:29:27;;;;;;;7.72;5.97;;;;;;;7.20;47.72;99623.49;1759584;80;21167;-66
2022/01/23 03:34:22;;;;;;;8.13;6.12;;;;;;;7.22;47.70;99629.95;1755460;80;21029;-64
2022/01/23 03:36:49;;;;;;;8.08;6.30;;;;;;;7.21;47.71;99629.13;1754935;80;21542;-66
2022/01/23 03:39:15;;;;;;;7.40;5.80;;;;;;;7.21;47.68;99630.45;1733241;80;20982;-65
2022/01/23 03:41:43;;;;;;;8.10;6.17;;;;;;;7.21;47.68;99631.78;1780524;80;21108;-65
2022/01/23 03:44:13;;;;;;;7.97;6.30;;;;;;;7.23;47.65;99640.38;1779582;80;20998;-66
2022/01/23 03:46:50;;;;;;;9.60;6.70;;;;;;;7.23;47.64;99644.34;1774787;80;21084;-65
2022/01/23 03:49:34;;;;;;;8.80;6.78;;;;;;;7.23;47.64;99649.63;1751458;80;21022;-66
2022/01/23 03:52:11;;;;;;;7.92;6.28;;;;;;;7.23;47.62;99650.95;1753281;80;21532;-65
2022/01/23 03:54:39;;;;;;;7.90;6.03;;;;;;;7.23;47.62;99664.16;1746166;80;21782;-65
2022/01/23 03:57:07;;;;;;;7.20;6.05;;;;;;;7.23;47.61;99668.63;1752548;80;21046;-65
2022/01/23 03:59:34;;;;;;;8.60;6.22;;;;;;;7.24;47.57;99671.59;1760710;80;21005;-65
2022/01/23 04:02:01;;;;;;;7.55;6.42;;;;;;;7.23;47.58;99676.05;1769062;80;21038;-64
2022/01/23 04:04:40;;;;;;;8.85;6.45;;;;;;;7.24;47.55;99679.05;1760823;80;21086;-65
2022/01/23 04:07:25;;;;;;;8.85;5.85;;;;;;;7.24;47.55;99684.80;1756965;80;21206;-63
2022/01/23 04:09:51;;;;;;;7.67;6.17;;;;;;;7.24;47.55;99693.59;1781857;80;21035;-63
2022/01/23 04:14:59;;;;;;;7.65;5.90;;;;;;;7.24;47.54;99702.83;1766542;80;21020;-64
2022/01/23 04:20:30;;;;;;;7.78;5.78;;;;;;;7.23;47.53;99700.33;1710023;83;21166;-64
2022/01/23 05:00:36;;;;;;;6.83;6.12;;;;;;;7.17;47.48;99783.66;1720696;82;21151;-64
2022/01/23 05:03:52;;;;;;;8.00;5.97;;;;;;;7.17;47.47;99794.72;1717601;82;21037;-64
2022/01/23 05:05:39;;;;;;;7.10;6.10;;;;;;;7.16;47.47;99797.83;1698471;83;21157;-64
2022/01/23 05:08:09;;;;;;;7.20;6.03;;;;;;;7.16;47.45;99804.93;1772298;80;21003;-65
2022/01/23 05:10:45;;;;;;;7.58;6.37;;;;;;;7.15;47.46;99804.60;1698582;80;21028;-64
2022/01/23 05:13:27;;;;;;;7.67;6.70;;;;;;;7.16;47.45;99812.86;1721661;80;21144;-64
2022/01/23 05:15:54;;;;;;;7.67;6.85;;;;;;;7.16;47.44;99823.42;1756231;80;21014;-64
2022/01/23 05:18:20;;;;;;;8.80;6.75;;;;;;;7.15;47.43;99819.13;1761860;80;21073;-64
2022/01/23 05:20:54;;;;;;;6.10;5.50;;;;;;;7.15;47.40;99822.59;1756752;79;21042;-64
2022/01/23 05:23:16;;;;;;;7.12;6.25;;;;;;;7.15;47.40;99825.23;1759337;80;20998;-65
2022/01/23 05:25:42;;;;;;;7.45;6.65;;;;;;;7.15;47.39;99831.84;1765291;80;21327;-63
2022/01/23 05:28:09;;;;;;;7.75;6.45;;;;;;;7.15;47.38;99829.20;1763220;80;21006;-64
2022/01/23 05:30:36;;;;;;;7.22;6.17;;;;;;;7.16;47.38;99834.81;1760586;80;21078;-63
2022/01/23 05:33:02;;;;;;;7.97;6.42;;;;;;;7.17;47.36;99834.35;1768219;80;21034;-64
2022/01/23 05:35:31;;;;;;;7.75;6.70;;;;;;;7.17;47.33;99838.31;1761462;79;21063;-64
2022/01/23 05:37:58;;;;;;;8.03;6.65;;;;;;;7.17;47.32;99843.59;1765204;80;21171;-64
2022/01/23 05:40:27;;;;;;;7.78;6.33;;;;;;;7.16;47.32;99845.39;1765057;80;21073;-67
2022/01/23 05:42:55;;;;;;;8.45;6.92;;;;;;;7.16;47.30;99854.63;1769460;80;21593;-65
2022/01/23 05:45:21;;;;;;;7.80;6.83;;;;;;;7.17;47.30;99862.09;1775452;80;21018;-64
2022/01/23 05:48:05;;;;;;;7.23;6.53;;;;;;;7.16;47.28;99861.73;1778200;80;21493;-64
2022/01/23 05:50:37;;;;;;;7.75;6.28;;;;;;;7.16;47.27;99873.13;1763263;80;21251;-64
2022/01/23 05:53:05;;;;;;;8.00;6.15;;;;;;;7.16;47.27;99881.05;1727167;80;21018;-64
2022/01/23 05:55:36;;;;;;;7.28;6.53;;;;;;;7.16;47.26;99882.88;1751304;80;20991;-64
2022/01/23 05:58:04;;;;;;;8.60;6.83;;;;;;;7.16;47.25;99885.52;1754467;80;21952;-64
2022/01/23 06:00:35;;;;;;;8.78;6.87;;;;;;;7.15;47.24;99892.61;1765581;80;21518;-64
2022/01/23 06:03:03;;;;;;;8.93;6.25;;;;;;;7.16;47.23;99906.65;1700576;83;21564;-65
2022/01/23 06:05:32;;;;;;;8.53;7.20;;;;;;;7.15;47.22;99900.54;1776471;79;21073;-64
2022/01/23 06:08:00;;;;;;;9.43;7.30;;;;;;;7.16;47.20;99924.65;1782551;80;21044;-65
2022/01/23 06:10:29;;;;;;;8.33;6.78;;;;;;;7.16;47.21;99921.18;1780721;80;21632;-66
2022/01/23 06:12:55;;;;;;;8.63;6.95;;;;;;;7.16;47.17;99922.50;1752028;80;21489;-65
2022/01/23 06:15:22;;;;;;;8.43;6.78;;;;;;;7.16;47.16;99927.29;1752834;80;21184;-65
2022/01/23 06:17:49;;;;;;;8.60;6.67;;;;;;;7.15;47.17;99924.81;1772012;80;21088;-64
2022/01/23 06:20:33;;;;;;;7.15;5.83;;;;;;;7.15;47.16;99924.32;1751688;81;21070;-63
2022/01/23 06:23:20;;;;;;;7.90;6.62;;;;;;;7.15;47.15;99932.74;1721876;81;21888;-65
2022/01/23 06:25:49;;;;;;;8.30;6.97;;;;;;;7.13;47.16;99938.16;1719530;83;21054;-64
2022/01/23 06:28:52;;;;;;;9.20;7.20;;;;;;;7.14;47.12;99944.27;1740822;80;21072;-64
2022/01/23 06:31:19;;;;;;;7.25;6.55;;;;;;;7.14;47.12;99956.16;1765988;80;21112;-64
2022/01/23 06:33:45;;;;;;;7.95;6.72;;;;;;;7.14;47.14;99968.88;1778042;80;21076;-65
2022/01/23 06:36:11;;;;;;;7.92;6.78;;;;;;;7.13;47.11;99965.90;1763977;80;21000;-66
2022/01/23 06:38:38;;;;;;;7.95;6.75;;;;;;;7.13;47.11;99963.26;1777524;80;21508;-66
2022/01/23 06:41:05;;;;;;;8.98;6.60;;;;;;;7.12;47.10;99968.19;1763685;80;21094;-65
2022/01/23 06:43:48;;;;;;;8.18;6.35;;;;;;;7.14;47.09;99977.30;1774594;80;21054;-66
2022/01/23 06:46:17;;;;;;;7.65;6.70;;;;;;;7.14;47.09;99985.22;1754108;80;21053;-65
2022/01/23 06:48:44;;;;;;;7.15;6.45;;;;;;;7.13;47.09;99984.39;1758707;80;21573;-64
2022/01/23 06:51:11;;;;;;;9.18;7.00;;;;;;;7.13;47.07;99983.54;1763955;80;21123;-66
2022/01/23 06:53:38;;;;;;;9.08;7.47;;;;;;;7.13;47.05;99988.36;1772873;80;22134;-65
2022/01/23 06:56:04;;;;;;;8.00;7.20;;;;;;;7.14;47.04;99991.33;1768518;80;21045;-64
2022/01/23 06:58:33;;;;;;;7.95;6.15;;;;;;;7.15;47.04;99994.34;1780056;80;21061;-65
2022/01/23 07:01:00;;;;;;;7.75;6.50;;;;;;;7.16;47.02;100007.88;1775968;80;21029;-65
2022/01/23 07:03:36;;;;;;;7.65;6.85;;;;;;;7.16;47.02;100009.69;1766249;80;21037;-65
2022/01/23 07:06:07;;;;;;;9.25;6.95;;;;;;;7.17;47.01;100011.38;1735338;82;21135;-65
2022/01/23 07:08:36;;;;;;;8.25;7.42;;;;;;;7.16;46.98;100014.48;1733164;82;21026;-64
2022/01/23 07:11:22;;;;;;;8.60;6.87;;;;;;;7.17;46.97;100020.13;1643283;86;21067;-64
2022/01/23 07:13:53;;;;;;;9.73;6.65;;;;;;;7.17;46.96;100030.70;1641278;86;21095;-65
2022/01/23 07:16:22;;;;;;;7.12;6.35;;;;;;;7.18;46.94;100040.77;1658149;82;21069;-66
2022/01/23 07:18:50;;;;;;;8.68;6.78;;;;;;;7.18;46.93;100047.37;1717860;82;21152;-64
2022/01/23 07:21:16;;;;;;;7.90;6.42;;;;;;;7.18;46.92;100044.24;1742927;82;21501;-65
2022/01/23 07:23:50;;;;;;;8.75;7.25;;;;;;;7.19;46.92;100043.78;1746637;82;21549;-65
2022/01/23 07:26:13;;;;;;;8.35;7.33;;;;;;;7.20;46.91;100052.86;1727293;82;21077;-65
2022/01/23 07:28:42;;;;;;;7.92;6.60;;;;;;;7.20;46.90;100054.19;1742321;81;21586;-65
2022/01/23 07:31:10;;;;;;;8.65;7.25;;;;;;;7.21;46.88;100049.27;1745365;81;21212;-65
2022/01/23 07:33:37;;;;;;;8.60;7.12;;;;;;;7.21;46.84;100058.51;1720416;82;21022;-64
2022/01/23 07:36:05;;;;;;;8.38;7.00;;;;;;;7.22;46.87;100066.80;1739893;80;21049;-64
2022/01/23 07:38:31;;;;;;;8.00;7.20;;;;;;;7.24;46.85;100073.24;1734048;82;21121;-63
2022/01/23 07:40:59;;;;;;;8.30;7.25;;;;;;;7.25;46.83;100084.17;1717701;82;21033;-64
2022/01/23 07:43:30;;;;;;;8.83;7.92;;;;;;;7.25;46.81;100081.04;1727996;82;23214;-64
2022/01/23 07:46:16;;;;;;;8.45;6.90;;;;;;;7.27;46.79;100083.55;1736371;82;21061;-62
2022/01/23 07:48:46;;;;;;;8.43;7.42;;;;;;;7.27;46.79;100088.84;1716331;82;21048;-64
2022/01/23 07:51:32;;;;;;;8.03;7.03;;;;;;;7.27;47.20;100093.63;1736355;81;21067;-65
2022/01/23 07:54:00;;;;;;;7.67;6.87;;;;;;;7.30;47.31;100097.79;1734250;81;21037;-65
2022/01/23 07:56:28;;;;;;;8.05;7.20;;;;;;;7.32;47.35;100096.34;1692562;82;21096;-65
2022/01/23 07:59:14;;;;;;;9.23;7.60;;;;;;;7.32;47.33;100095.88;1728356;82;21058;-64
2022/01/23 08:01:49;;;;;;;10.75;8.40;;;;;;;7.35;47.30;100101.36;1716294;82;21541;-65
2022/01/23 08:04:17;;;;;;;8.85;7.20;;;;;;;7.37;47.28;100107.34;1734808;82;21093;-65
2022/01/23 08:06:46;;;;;;;7.45;6.67;;;;;;;7.39;47.25;100110.67;1753403;80;21170;-65
2022/01/23 08:09:32;;;;;;;8.65;7.47;;;;;;;7.41;47.20;100111.37;1771504;80;21118;-65
2022/01/23 08:11:58;;;;;;;9.73;8.05;;;;;;;7.44;47.17;100115.07;1764256;80;22039;-65
2022/01/23 08:14:25;;;;;;;8.68;7.45;;;;;;;7.45;47.12;100120.69;1761260;80;21077;-65
2022/01/23 08:16:51;;;;;;;8.80;7.50;;;;;;;7.48;47.09;100131.83;1747688;80;22315;-65
2022/01/23 08:19:18;;;;;;;9.50;8.28;;;;;;;7.51;47.06;100137.81;1753428;80;21037;-64
2022/01/23 08:21:44;;;;;;;8.78;7.40;;;;;;;7.52;46.99;100144.28;1762862;80;21632;-66
2022/01/23 08:24:11;;;;;;;8.28;7.37;;;;;;;7.53;46.95;100153.88;1762831;80;21039;-65
2022/01/23 08:26:38;;;;;;;8.40;7.50;;;;;;;7.56;46.92;100155.42;1767643;80;21069;-65
2022/01/23 08:29:05;;;;;;;9.85;7.53;;;;;;;7.57;46.88;100161.91;1758370;80;21525;-65
2022/01/23 08:31:32;;;;;;;10.20;8.10;;;;;;;7.59;46.85;100170.53;1743185;80;21093;-65
2022/01/23 08:33:58;;;;;;;9.88;7.58;;;;;;;7.61;46.83;100173.01;1751939;80;21116;-65
2022/01/23 08:36:25;;;;;;;9.05;7.83;;;;;;;7.62;46.79;100186.09;1752706;80;21010;-64
2022/01/23 08:38:52;;;;;;;8.70;7.67;;;;;;;7.64;46.79;100189.94;1764083;79;21487;-63
2022/01/23 08:44:05;;;;;;;9.13;7.55;;;;;;;7.67;46.70;100200.25;1748223;79;21015;-64
2022/01/23 08:46:32;;;;;;;8.88;7.50;;;;;;;7.70;46.67;100206.56;1746511;80;21129;-64
2022/01/23 08:49:00;;;;;;;8.30;7.15;;;;;;;7.71;46.63;100212.68;1743134;81;22034;-66
2022/01/23 08:51:26;;;;;;;7.87;7.00;;;;;;;7.74;46.63;100204.48;1753118;80;20991;-66
2022/01/23 08:53:52;;;;;;;8.18;7.20;;;;;;;7.74;46.58;100206.63;1702220;82;21533;-65
2022/01/23 08:56:19;;;;;;;7.70;6.90;;;;;;;7.76;46.56;100207.83;1744745;80;21151;-64
2022/01/23 08:58:45;;;;;;;8.98;7.70;;;;;;;7.78;46.54;100217.77;1746292;80;21121;-64
2022/01/23 09:01:12;;;;;;;8.43;7.53;;;;;;;7.79;46.50;100218.97;1753446;80;22157;-65
2022/01/23 09:03:39;;;;;;;8.20;7.30;;;;;;;7.80;46.49;100218.01;1760308;80;21098;-64
2022/01/23 09:06:07;;;;;;;8.53;7.62;;;;;;;7.82;46.47;100220.02;1748050;80;21499;-65
2022/01/23 09:08:36;;;;;;;8.00;7.17;;;;;;;7.84;46.45;100222.51;1756980;80;21528;-65
2022/01/23 09:11:09;;;;;;;8.53;7.17;;;;;;;7.87;46.43;100224.89;1751045;80;21165;-65
2022/01/23 09:13:54;;;;;;;7.78;6.97;;;;;;;7.90;46.41;100229.91;1760257;80;21018;-65
2022/01/23 09:16:09;;;;;;;8.65;7.12;;;;;;;7.92;46.37;100212.09;1750223;80;21068;-66
2022/01/23 09:20:45;;;;;;;8.23;7.33;;;;;;;8.03;46.33;100224.33;1803495;77;27955;-65
2022/01/23 09:23:11;;;;;;;7.35;6.58;;;;;;;8.03;46.30;100229.62;1765075;80;20934;-64
2022/01/23 09:25:38;;;;;;;8.40;7.00;;;;;;;8.07;46.29;100235.83;1774122;79;21846;-65
2022/01/23 09:28:07;;;;;;;8.15;6.67;;;;;;;8.10;46.24;100239.17;1763996;80;20957;-65
2022/01/23 09:30:36;;;;;;;8.15;7.35;;;;;;;8.14;46.23;100241.88;1763644;79;21486;-67
2022/01/23 09:33:03;;;;;;;7.25;6.40;;;;;;;8.17;46.22;100242.44;1766753;80;21005;-66
2022/01/23 09:35:29;;;;;;;7.12;6.42;;;;;;;8.21;46.18;100240.35;1763786;80;21046;-64
2022/01/23 09:37:56;;;;;;;7.65;6.85;;;;;;;8.24;46.15;100246.67;1762773;80;21099;-61
2022/01/23 09:40:22;;;;;;;7.30;6.15;;;;;;;8.27;46.11;100239.29;1762807;79;21155;-64
2022/01/23 09:42:54;;;;;;;8.98;7.53;;;;;;;8.30;46.10;100246.10;1776529;80;21046;-62
2022/01/23 09:45:20;;;;;;;7.15;6.45;;;;;;;8.33;46.09;100257.75;1761348;81;21033;-63
2022/01/23 09:47:47;;;;;;;7.97;6.60;;;;;;;8.36;46.07;100253.97;1788534;80;21057;-63
2022/01/23 09:50:14;;;;;;;7.35;6.53;;;;;;;8.37;46.07;100256.48;1779106;80;22371;-66
2022/01/23 09:52:42;;;;;;;7.40;6.53;;;;;;;8.38;46.05;100252.88;1783935;80;21053;-62
2022/01/23 09:55:11;;;;;;;7.37;6.10;;;;;;;8.41;46.02;100260.55;1778533;80;21038;-62
2022/01/23 09:57:44;;;;;;;8.23;6.62;;;;;;;8.42;46.02;100259.59;1785804;79;21134;-63
2022/01/23 10:00:15;;;;;;;7.50;6.67;;;;;;;8.45;45.99;100260.61;1771028;80;21091;-62
2022/01/23 10:02:42;;;;;;;7.92;6.58;;;;;;;8.47;45.99;100259.15;1788836;80;22178;-63
2022/01/23 10:05:09;;;;;;;6.92;6.22;;;;;;;8.48;45.97;100260.83;1782046;80;21035;-62
2022/01/23 10:07:38;;;;;;;7.05;6.35;;;;;;;8.48;45.93;100262.16;1770009;79;21126;-62
2022/01/23 10:10:11;;;;;;;7.58;6.10;;;;;;;8.50;45.93;100261.53;1762283;79;21006;-63
2022/01/23 10:12:45;;;;;;;6.15;5.55;;;;;;;8.52;45.92;100265.33;1771300;80;21701;-66
2022/01/23 10:15:12;;;;;;;8.05;6.25;;;;;;;8.54;45.92;100274.00;1765716;80;21139;-62
2022/01/23 10:17:39;;;;;;;6.92;5.92;;;;;;;8.54;45.92;100276.15;1770278;80;21093;-61
2022/01/23 10:20:07;;;;;;;9.18;7.03;;;;;;;8.56;45.89;100273.37;1763050;79;21640;-62
2022/01/23 10:22:36;;;;;;;6.90;6.20;;;;;;;8.57;45.90;100281.14;1767579;80;21049;-61
2022/01/23 10:25:10;;;;;;;6.67;5.97;;;;;;;8.58;45.86;100289.45;1761819;78;21057;-61
2022/01/23 10:28:03;;;;;;;6.70;6.10;;;;;;;8.59;45.86;100284.98;1755915;80;21140;-61
2022/01/23 10:30:45;;;;;;;7.47;5.92;;;;;;;8.59;45.85;100292.42;1761424;80;21022;-63
2022/01/23 10:33:25;;;;;;;7.05;5.60;;;;;;;8.60;45.84;100297.27;1760017;79;21085;-64
2022/01/23 10:36:16;;;;;;;6.22;5.62;;;;;;;8.61;45.83;100312.16;1775459;79;20918;-62
2022/01/23 10:39:01;;;;;;;5.90;5.30;;;;;;;8.60;45.82;100315.80;1767794;80;21049;-63
2022/01/23 10:41:48;;;;;;;6.62;5.62;;;;;;;8.61;45.81;100316.13;1760679;79;21151;-62
2022/01/23 10:50:05;;;;;;;8.43;5.72;;;;;;;8.59;45.78;100330.00;1778610;79;21121;-61
2022/01/23 10:52:42;;;;;;;7.33;6.08;;;;;;;8.58;45.76;100327.02;1786667;79;21010;-64
2022/01/23 10:55:24;;;;;;;6.10;5.50;;;;;;;8.57;45.75;100327.48;1764231;80;21147;-64
2022/01/23 10:58:00;;;;;;;6.67;5.70;;;;;;;8.56;45.75;100327.66;1781895;79;21021;-64
2022/01/23 11:00:38;;;;;;;6.50;5.22;;;;;;;8.54;45.74;100333.09;1788219;80;21061;-62
2022/01/23 11:03:20;;;;;;;6.83;6.00;;;;;;;8.55;45.73;100343.18;1784805;79;21049;-63
2022/01/23 11:05:48;;;;;;;6.83;5.50;;;;;;;8.54;45.73;100342.85;1776667;80;21015;-62
2022/01/23 11:08:22;;;;;;;6.58;5.85;;;;;;;8.54;45.73;100338.38;1774805;80;22723;-62
2022/01/23 11:10:58;;;;;;;6.97;6.28;;;;;;;8.54;45.71;100342.85;1760793;80;21040;-64
2022/01/23 11:19:38;;;;;;;6.25;5.55;;;;;;;8.55;45.71;100367.02;1769891;80;21576;-62
2022/01/23 11:22:00;;;;;;;6.40;5.22;;;;;;;8.53;45.71;100366.32;1771753;79;21168;-62
2022/01/23 11:24:38;;;;;;;6.72;5.60;;;;;;;8.53;45.72;100365.00;1761554;80;21732;-62
2022/01/23 11:27:08;;;;;;;6.37;5.15;;;;;;;8.52;45.72;100373.44;1775939;80;21439;-62
2022/01/23 11:29:34;;;;;;;6.28;5.47;;;;;;;8.52;45.71;100386.68;1771188;79;21045;-61
2022/01/23 11:32:00;;;;;;;6.90;5.28;;;;;;;8.52;45.71;100391.12;1695488;83;21099;-63
2022/01/23 11:34:28;;;;;;;6.58;5.15;;;;;;;8.52;45.68;100397.73;1708533;82;21953;-62
2022/01/23 11:36:55;;;;;;;5.50;4.97;;;;;;;8.51;45.68;100405.34;1703231;82;21011;-61
2022/01/23 11:50:44;;;;;;;6.40;5.28;;;;;;;8.49;45.61;100428.48;1704107;82;21058;-61
2022/01/23 11:53:47;;;;;;;6.62;5.62;;;;;;;8.48;45.62;100431.62;1717470;81;21082;-62
2022/01/23 11:56:33;;;;;;;6.03;5.08;;;;;;;8.46;45.65;100439.70;1717173;82;21015;-60
2022/01/23 11:59:18;;;;;;;7.67;5.50;;;;;;;8.44;45.64;100441.66;1718043;82;21113;-63
2022/01/23 12:01:48;;;;;;;6.40;5.12;;;;;;;8.42;45.67;100438.31;1716164;81;21110;-62
2022/01/23 12:04:19;;;;;;;6.65;5.50;;;;;;;8.42;45.66;100448.03;1727219;81;21053;-62
2022/01/23 12:06:46;;;;;;;7.40;5.67;;;;;;;8.41;45.69;100447.21;1724405;83;21101;-63
2022/01/23 12:09:18;;;;;;;6.78;5.15;;;;;;;8.41;45.67;100443.70;1693994;82;21129;-62
2022/01/23 12:12:09;;;;;;;5.90;5.30;;;;;;;8.40;45.69;100438.05;1711173;81;21141;-62
2022/01/23 12:17:13;;;;;;;6.75;5.05;;;;;;;8.40;45.66;100451.28;1704599;82;21094;-63
2022/01/23 12:19:49;;;;;;;6.03;5.42;;;;;;;8.40;45.67;100460.55;1705742;82;21121;-62
2022/01/23 12:22:46;;;;;;;6.80;5.33;;;;;;;8.38;45.65;100466.00;1764959;79;21073;-62
2022/01/23 12:25:17;;;;;;;5.50;4.87;;;;;;;8.39;45.67;100476.92;1764923;79;21502;-62
2022/01/23 12:27:44;;;;;;;5.15;4.65;;;;;;;8.38;45.65;100477.92;1760866;80;22309;-64
2022/01/23 12:30:21;;;;;;;5.78;5.17;;;;;;;8.39;45.65;100481.39;1758324;80;21056;-66
2022/01/23 12:33:09;;;;;;;6.03;5.05;;;;;;;8.38;45.65;100491.16;1767575;79;21049;-65
2022/01/23 12:35:42;;;;;;;5.78;5.12;;;;;;;8.38;45.64;100496.91;1712694;79;21514;-64
2022/01/23 12:38:10;;;;;;;6.03;5.40;;;;;;;8.37;45.63;100502.70;1758709;80;21536;-65
2022/01/23 12:40:43;;;;;;;6.50;5.10;;;;;;;8.37;45.64;100516.44;1780748;80;22842;-64
2022/01/23 12:43:17;;;;;;;5.45;4.65;;;;;;;8.36;45.65;100518.22;1788098;79;21521;-63
2022/01/23 12:46:02;;;;;;;6.30;5.50;;;;;;;8.37;45.63;100525.70;1789273;80;21529;-63
2022/01/23 12:48:38;;;;;;;6.22;5.25;;;;;;;8.36;45.62;100531.46;1773397;80;21608;-64
2022/01/23 12:51:16;;;;;;;5.87;4.80;;;;;;;8.36;45.61;100527.49;1768580;79;21088;-64
2022/01/23 12:53:52;;;;;;;5.87;5.20;;;;;;;8.36;45.60;100528.81;1788156;79;21194;-63
2022/01/23 12:56:23;;;;;;;5.87;4.90;;;;;;;8.36;45.60;100536.76;1721618;83;21528;-65
2022/01/23 12:58:54;;;;;;;5.62;4.53;;;;;;;8.35;45.60;100535.59;1729955;80;21533;-65
2022/01/23 13:01:23;;;;;;;4.90;4.40;;;;;;;8.35;45.58;100538.24;1722566;81;21010;-67
2022/01/23 13:03:56;;;;;;;5.93;4.73;;;;;;;8.34;45.61;100545.32;1758706;79;21017;-64
2022/01/23 13:06:54;;;;;;;5.33;4.83;;;;;;;8.37;45.57;100554.83;1769768;80;21877;-63
2022/01/23 13:12:09;;;;;;;6.20;5.05;;;;;;;8.35;45.56;100568.69;1775581;79;21041;-65
2022/01/23 13:14:58;;;;;;;5.65;4.65;;;;;;;8.35;45.57;100574.81;1716755;82;21505;-64
2022/01/23 13:31:48;;;;;;;5.70;4.95;;;;;;;8.28;45.60;100597.48;1760574;81;21030;-65
2022/01/23 13:34:35;;;;;;;6.58;4.97;;;;;;;8.27;45.59;100602.45;1759686;81;21861;-64
2022/01/23 13:37:14;;;;;;;8.05;5.37;;;;;;;8.25;45.60;100609.19;1764776;79;21600;-64
2022/01/23 13:39:59;;;;;;;6.17;5.22;;;;;;;8.25;45.58;100619.78;1782965;79;21037;-63
2022/01/23 13:51:39;;;;;;;6.83;5.28;;;;;;;8.19;45.61;100646.78;1791621;80;21065;-65
2022/01/23 13:59:48;;;;;;;5.70;4.92;;;;;;;8.16;45.64;100661.58;1771322;79;21029;-66
2022/01/23 14:02:26;;;;;;;5.75;4.80;;;;;;;8.16;45.64;100671.34;1787856;79;21114;-65
2022/01/23 14:05:14;;;;;;;6.22;5.22;;;;;;;8.15;45.65;100674.94;1770855;80;21625;-65
2022/01/23 14:07:51;;;;;;;5.67;4.90;;;;;;;8.13;45.65;100667.16;1767425;80;21081;-65
2022/01/23 14:10:31;;;;;;;5.83;5.17;;;;;;;8.13;45.67;100671.13;1760728;80;21049;-66
2022/01/23 14:13:15;;;;;;;5.12;4.62;;;;;;;8.07;45.66;100667.64;1776694;78;21069;-65
2022/01/23 14:15:49;;;;;;;6.70;5.40;;;;;;;8.11;45.68;100677.00;1786681;79;21100;-64
2022/01/23 14:18:26;;;;;;;5.90;4.87;;;;;;;8.10;45.66;100675.34;1776727;79;21033;-66
2022/01/23 14:21:03;;;;;;;6.00;4.87;;;;;;;8.08;45.67;100683.41;1772499;79;21021;-66
2022/01/23 14:23:30;;;;;;;6.08;4.85;;;;;;;8.07;45.68;100680.41;1756296;80;22062;-65
2022/01/23 14:26:00;;;;;;;5.90;5.10;;;;;;;8.07;45.69;100690.14;1752004;80;21070;-66
2022/01/23 14:28:40;;;;;;;5.87;5.05;;;;;;;8.06;45.67;100685.83;1759103;79;21122;-66
2022/01/23 14:31:17;;;;;;;6.97;5.40;;;;;;;8.04;45.77;100679.34;1769958;79;21076;-66
2022/01/23 14:33:38;;;;;;;6.80;4.60;;;;;;;8.03;45.93;100676.33;1748592;80;21525;-66
2022/01/23 14:36:21;;;;;;;5.67;4.92;;;;;;;8.03;45.98;100675.49;1749968;80;21475;-68
2022/01/23 14:38:57;;;;;;;6.97;5.35;;;;;;;8.03;45.99;100682.94;1761675;79;21063;-68
2022/01/23 14:41:25;;;;;;;6.37;4.97;;;;;;;8.01;46.00;100687.52;1768119;80;21455;-68
2022/01/23 14:43:51;;;;;;;5.97;5.17;;;;;;;7.93;45.98;100676.75;1763186;80;21013;-68
2022/01/23 14:46:18;;;;;;;5.55;4.95;;;;;;;7.99;46.00;100690.78;1765108;80;21474;-66
2022/01/23 14:48:50;;;;;;;5.72;5.15;;;;;;;7.97;45.98;100698.01;1758830;79;21086;-66
2022/01/23 14:51:22;;;;;;;6.25;5.17;;;;;;;7.97;45.97;100712.56;1768067;80;21109;-67
2022/01/23 14:53:48;;;;;;;5.97;5.37;;;;;;;7.97;45.97;100717.02;1777657;79;21074;-67
2022/01/23 14:56:14;;;;;;;5.92;4.67;;;;;;;7.94;45.94;100720.77;1730842;82;21048;-69
2022/01/23 14:58:42;;;;;;;8.25;5.95;;;;;;;7.93;45.97;100721.73;1713063;82;21011;-67
2022/01/23 15:01:12;;;;;;;7.33;5.17;;;;;;;7.92;45.96;100725.36;1723681;80;21058;-66